Time;durP1;ratioP1;P1;durP2;ratioP2;P2;SDS_P1;SDS_P2;PMS_P1;PMS_P2;Temp;Humidity;BMP_temperature;BMP_pressure;BME280_temperature;BME280_humidity;BME280_pressure;Samples;Min_cycle;Max_cycle;Signal;HPM_P1;HPM_P2
2021/01/19 00:00:53;;;;;;;;;1.00;0.80;20.90;58.50;;;19.79;42.01;101098.94;5026353;28;8850;-59
2021/01/19 00:03:20;;;;;;;;;0.25;0.25;20.90;58.10;;;19.81;42.37;101107.69;5016884;28;8921;-61
2021/01/19 00:05:47;;;;;;;;;0.20;0.00;21.00;58.60;;;19.81;42.42;101106.84;5026270;28;8797;-61
2021/01/19 00:08:14;;;;;;;;;0.75;0.75;20.90;58.70;;;19.82;42.31;101104.03;5030904;28;8808;-61
2021/01/19 00:10:40;;;;;;;;;1.00;1.00;21.00;58.90;;;19.82;41.95;101108.53;5027970;28;8810;-60
2021/01/19 00:13:07;;;;;;;;;1.60;1.00;21.00;59.10;;;19.85;41.81;101113.59;5019921;28;8800;-61
2021/01/19 00:15:34;;;;;;;;;1.40;1.00;21.00;57.80;;;19.86;40.93;101109.91;5017031;28;8797;-60
2021/01/19 00:18:01;;;;;;;;;0.80;0.80;20.80;57.50;;;19.87;40.17;101122.31;5025994;28;8902;-60
2021/01/19 00:20:28;;;;;;;;;2.00;1.00;21.00;57.30;;;19.86;40.46;101112.59;5019792;28;8951;-61
2021/01/19 00:22:55;;;;;;;;;0.40;0.00;21.00;56.90;;;19.87;40.08;101108.91;5018698;28;8804;-60
2021/01/19 00:25:22;;;;;;;;;2.00;2.00;21.10;57.60;;;19.88;40.39;101107.94;5021783;28;8835;-59
2021/01/19 00:27:49;;;;;;;;;0.20;0.00;21.00;57.30;;;19.89;41.21;101117.63;5030994;28;8778;-60
2021/01/19 00:30:16;;;;;;;;;1.00;0.00;21.20;57.10;;;19.89;39.96;101110.44;5023298;28;8817;-60
2021/01/19 00:32:43;;;;;;;;;1.00;1.00;21.20;57.20;;;19.90;40.73;101113.97;5017621;28;9350;-60
2021/01/19 00:35:11;;;;;;;;;0.00;0.00;21.00;56.50;;;19.92;40.65;101117.31;5026680;28;8813;-61
2021/01/19 00:37:37;;;;;;;;;1.60;1.00;21.10;56.90;;;19.93;40.46;101138.63;5024460;28;8818;-61
2021/01/19 00:40:05;;;;;;;;;0.00;0.00;21.00;56.80;;;19.93;40.46;101119.03;5024528;28;8820;-60
2021/01/19 00:42:32;;;;;;;;;0.00;0.00;21.00;56.20;;;19.92;40.38;101126.25;5029566;28;8792;-61
2021/01/19 00:44:59;;;;;;;;;1.00;1.00;21.10;56.70;;;19.94;40.83;101123.38;5035526;28;8798;-60
2021/01/19 00:47:25;;;;;;;;;0.00;0.00;21.10;56.40;;;19.95;38.07;101123.25;5016859;28;8872;-60
2021/01/19 00:49:52;;;;;;;;;0.20;0.20;20.90;56.20;;;19.96;39.83;101124.09;5033632;28;8778;-60
2021/01/19 00:52:19;;;;;;;;;0.60;0.00;21.20;55.90;;;19.95;39.07;101131.28;5028780;28;8790;-62
2021/01/19 00:54:46;;;;;;;;;1.00;0.20;20.90;56.30;;;19.97;40.14;101136.47;5027103;28;8771;-60
2021/01/19 00:57:12;;;;;;;;;0.00;0.00;21.10;56.20;;;19.97;40.08;101132.97;5016056;28;8796;-64
2021/01/19 00:59:39;;;;;;;;;0.60;0.00;21.10;56.20;;;20.00;40.41;101129.97;5026860;28;8832;-62
2021/01/19 01:02:07;;;;;;;;;2.80;1.00;21.10;56.60;;;19.98;39.45;101126.63;5026001;28;8916;-60
2021/01/19 01:04:34;;;;;;;;;0.00;0.00;21.10;56.20;;;20.00;40.03;101128.16;5030173;28;8815;-60
2021/01/19 01:07:01;;;;;;;;;0.00;0.00;21.30;56.00;;;20.00;40.22;101125.47;5024062;28;8804;-60
2021/01/19 01:09:27;;;;;;;;;0.40;0.00;21.10;56.70;;;20.01;39.99;101126.31;5024929;28;9523;-62
2021/01/19 01:11:54;;;;;;;;;0.00;0.00;21.10;56.50;;;20.01;40.27;101124.47;5025662;28;8809;-62
2021/01/19 01:14:21;;;;;;;;;0.00;0.00;21.20;56.80;;;20.02;40.01;101126.13;5022656;28;8818;-60
2021/01/19 01:16:48;;;;;;;;;1.00;1.00;21.00;56.20;;;20.03;40.52;101133.19;5025431;28;8794;-59
2021/01/19 01:19:14;;;;;;;;;0.00;0.00;21.30;56.40;;;20.04;40.07;101140.22;5022417;28;8838;-59
2021/01/19 01:21:41;;;;;;;;;0.00;0.00;21.20;57.00;;;20.04;40.41;101144.75;5030702;28;8817;-60
2021/01/19 01:24:09;;;;;;;;;0.00;0.00;21.00;56.60;;;20.05;41.09;101143.75;5021132;28;8815;-59
2021/01/19 01:26:37;;;;;;;;;0.00;0.00;21.30;57.40;;;20.02;40.72;101136.84;5020823;28;8806;-60
2021/01/19 01:29:06;;;;;;;;;0.40;0.00;20.90;57.20;;;20.05;40.98;101141.94;5024228;28;9588;-60
2021/01/19 01:31:35;;;;;;;;;0.40;0.00;21.30;57.40;;;20.06;41.09;101140.94;5028189;28;8850;-59
2021/01/19 01:34:03;;;;;;;;;0.00;0.00;21.10;57.80;;;20.06;41.53;101134.72;5027008;28;8832;-60
2021/01/19 01:36:37;;;;;;;;;0.00;0.00;21.20;57.80;;;20.07;41.66;101133.72;5023545;28;8828;-60
2021/01/19 01:39:04;;;;;;;;;0.00;0.00;21.10;57.90;;;20.08;41.81;101130.91;5024992;28;8807;-59
2021/01/19 01:41:32;;;;;;;;;1.20;0.20;21.00;57.70;;;20.07;41.68;101125.66;5029282;28;9540;-60
2021/01/19 01:44:02;;;;;;;;;0.00;0.00;21.30;58.00;;;20.08;41.38;101125.53;5030425;28;8813;-60
2021/01/19 01:46:33;;;;;;;;;0.00;0.00;21.20;57.80;;;20.10;41.50;101128.91;5026807;28;8828;-59
2021/01/19 01:49:02;;;;;;;;;0.40;0.20;21.00;58.00;;;20.11;41.54;101124.38;5011147;28;8813;-58
2021/01/19 01:51:30;;;;;;;;;0.60;0.60;21.00;57.80;;;20.11;41.98;101119.00;5030446;28;8761;-59
2021/01/19 01:53:57;;;;;;;;;0.00;0.00;21.10;58.10;;;20.12;42.18;101113.50;5023232;28;8842;-59
2021/01/19 01:56:25;;;;;;;;;0.00;0.00;21.00;58.20;;;20.12;42.45;101118.00;5028660;28;8844;-59
2021/01/19 01:58:55;;;;;;;;;0.00;0.00;21.20;58.70;;;20.12;42.28;101113.50;5014559;28;8790;-59
2021/01/19 02:01:24;;;;;;;;;0.00;0.00;21.20;58.70;;;20.14;42.51;101118.69;5026517;28;8796;-59
2021/01/19 02:03:53;;;;;;;;;1.60;0.00;21.20;58.90;;;20.15;42.29;101112.34;5029818;28;8905;-59
2021/01/19 02:06:19;;;;;;;;;0.60;0.40;21.30;58.80;;;20.14;42.37;101124.06;5026001;28;8800;-59
2021/01/19 02:09:23;;;;;;;;;1.00;0.20;21.20;58.70;;;20.14;42.43;101119.53;5015775;28;8782;-59
2021/01/19 02:12:05;;;;;;;;;0.00;0.00;21.20;58.80;;;20.15;42.43;101123.91;5022509;28;8802;-59
2021/01/19 02:14:37;;;;;;;;;1.00;0.00;21.10;58.50;;;20.13;42.45;101104.44;5013460;28;8844;-60
2021/01/19 02:17:26;;;;;;;;;1.00;1.00;21.20;58.80;;;20.15;42.34;101112.34;5018853;28;8913;-59
2021/01/19 02:20:45;;;;;;;;;0.00;0.00;21.20;58.60;;;20.18;42.37;101114.72;5006384;28;8829;-62
2021/01/19 02:23:51;;;;;;;;;0.00;0.00;21.10;58.90;;;20.21;42.46;101129.66;5014651;28;8804;-59
2021/01/19 02:26:47;;;;;;;;;0.00;0.00;21.20;59.40;;;20.24;42.82;101135.53;5016161;28;8816;-60
2021/01/19 02:29:30;;;;;;;;;0.40;0.00;21.20;59.70;;;20.26;43.21;101146.97;5028202;28;8831;-60
2021/01/19 02:32:32;;;;;;;;;0.00;0.00;21.30;60.30;;;20.29;43.54;101132.41;5027296;28;8816;-62
2021/01/19 02:35:12;;;;;;;;;0.20;0.20;21.20;60.40;;;20.29;43.42;101122.50;5031965;28;8787;-62
2021/01/19 02:38:39;;;;;;;;;0.00;0.00;21.40;60.50;;;20.31;43.16;101120.50;5026877;28;8903;-60
2021/01/19 02:41:08;;;;;;;;;0.40;0.20;21.20;60.40;;;20.34;43.05;101114.00;5028617;28;8816;-59
2021/01/19 02:43:41;;;;;;;;;0.00;0.00;21.30;60.00;;;20.36;42.93;101120.03;5029106;28;8912;-61
2021/01/19 02:46:08;;;;;;;;;0.00;0.00;21.20;60.40;;;20.36;42.53;101118.19;5025123;28;8806;-62
2021/01/19 02:48:34;;;;;;;;;0.00;0.00;21.30;59.60;;;20.38;43.29;101123.41;5029441;28;8839;-59
2021/01/19 02:51:01;;;;;;;;;0.00;0.00;21.30;59.90;;;20.41;43.45;101130.31;5025086;28;9877;-59
2021/01/19 02:53:29;;;;;;;;;0.20;0.20;21.50;60.80;;;20.39;42.90;101133.16;5026378;28;8873;-59
2021/01/19 02:55:56;;;;;;;;;0.40;0.00;21.30;61.00;;;20.39;43.88;101133.97;5026433;28;8801;-59
2021/01/19 02:59:31;;;;;;;;;0.00;0.00;21.30;60.50;;;20.42;43.86;101137.34;5022200;28;8822;-59
2021/01/19 03:02:13;;;;;;;;;0.00;0.00;21.40;61.00;;;20.42;44.08;101140.88;4973514;28;8806;-59
2021/01/19 03:04:42;;;;;;;;;0.00;0.00;21.40;60.80;;;20.44;44.07;101136.19;4972059;28;8843;-59
2021/01/19 03:07:09;;;;;;;;;0.00;0.00;21.50;61.30;;;20.45;44.19;101142.41;5023079;28;8865;-59
2021/01/19 03:09:40;;;;;;;;;0.00;0.00;21.40;61.10;;;20.44;44.20;101133.50;5013099;28;8884;-59
2021/01/19 03:12:13;;;;;;;;;0.00;0.00;21.30;61.10;;;20.47;44.35;101125.13;5016441;28;8890;-59
2021/01/19 03:14:42;;;;;;;;;0.00;0.00;21.40;61.30;;;20.46;44.53;101123.47;5013975;28;8792;-59
2021/01/19 03:17:11;;;;;;;;;0.00;0.00;21.40;61.50;;;20.47;44.65;101119.78;5000349;28;8793;-59
2021/01/19 03:19:41;;;;;;;;;0.00;0.00;21.30;61.90;;;20.48;44.95;101134.91;5021045;28;8829;-59
2021/01/19 03:22:09;;;;;;;;;0.00;0.00;21.50;62.10;;;20.48;45.07;101126.84;5025275;28;8801;-59
2021/01/19 03:24:37;;;;;;;;;0.00;0.00;21.40;62.10;;;20.49;45.22;101135.72;5034334;28;8838;-59
2021/01/19 03:27:05;;;;;;;;;0.00;0.00;21.30;62.40;;;20.51;45.57;101131.88;5037452;28;8888;-59
2021/01/19 03:29:33;;;;;;;;;2.00;0.40;21.40;62.80;;;20.51;45.71;101121.16;5031052;28;8813;-59
2021/01/19 03:32:00;;;;;;;;;0.00;0.00;21.40;62.70;;;20.52;46.02;101122.00;5029814;28;8837;-59
2021/01/19 03:34:27;;;;;;;;;0.00;0.00;21.40;63.20;;;20.53;46.00;101118.28;5028043;28;8786;-59
2021/01/19 03:36:54;;;;;;;;;0.00;0.00;21.40;63.10;;;20.52;46.47;101108.56;5025247;28;8810;-59
2021/01/19 03:39:22;;;;;;;;;0.00;0.00;21.40;63.60;;;20.53;46.56;101113.78;5024622;28;8927;-59
2021/01/19 03:41:48;;;;;;;;;0.40;0.00;21.60;63.70;;;20.53;46.52;101116.47;5032960;28;8777;-59
2021/01/19 03:44:15;;;;;;;;;0.00;0.00;21.40;63.70;;;20.54;46.41;101133.41;5028248;28;8909;-59
2021/01/19 03:46:42;;;;;;;;;0.00;0.00;21.40;63.40;;;20.54;46.33;101128.03;5030304;28;8810;-59
2021/01/19 03:49:09;;;;;;;;;0.00;0.00;21.40;63.40;;;20.53;46.14;101140.63;5022778;28;8775;-59
2021/01/19 03:51:36;;;;;;;;;0.80;0.80;21.40;63.30;;;20.54;46.06;101131.59;5026735;28;9594;-59
2021/01/19 03:54:03;;;;;;;;;0.00;0.00;21.50;63.30;;;20.55;46.05;101143.16;5022258;28;8764;-59
2021/01/19 03:56:30;;;;;;;;;0.00;0.00;21.60;63.40;;;20.54;46.04;101131.59;5021033;28;8814;-59
2021/01/19 03:58:57;;;;;;;;;0.00;0.00;21.30;63.10;;;20.55;46.25;101127.06;5026397;28;8778;-59
2021/01/19 04:01:23;;;;;;;;;1.00;1.00;21.30;63.40;;;20.58;46.08;101132.13;5028112;28;8824;-59
2021/01/19 04:03:50;;;;;;;;;0.00;0.00;21.50;63.40;;;20.57;46.19;101131.28;5024720;28;8787;-59
2021/01/19 04:06:17;;;;;;;;;0.00;0.00;21.50;63.70;;;20.58;46.62;101129.44;5028460;28;8929;-59
2021/01/19 04:08:44;;;;;;;;;0.00;0.00;21.50;64.10;;;20.58;46.74;101129.44;5032274;28;8814;-59
2021/01/19 04:11:11;;;;;;;;;1.40;1.00;21.40;64.10;;;20.58;46.48;101127.63;5026310;28;8820;-59
2021/01/19 04:13:38;;;;;;;;;1.00;0.00;21.40;64.10;;;20.59;46.53;101123.91;5027945;28;8782;-59
2021/01/19 04:16:05;;;;;;;;;0.60;0.60;21.40;63.80;;;20.59;46.86;101115.03;5022561;28;8866;-59
2021/01/19 04:18:32;;;;;;;;;0.00;0.00;21.40;64.30;;;20.58;46.94;101122.25;5031502;28;8830;-59
2021/01/19 04:20:59;;;;;;;;;0.00;0.00;21.40;64.20;;;20.58;46.72;101124.94;5028825;28;8841;-58
2021/01/19 04:23:26;;;;;;;;;0.40;0.00;21.40;64.20;;;20.58;46.87;101130.28;5026593;28;8789;-59
2021/01/19 04:25:53;;;;;;;;;0.00;0.00;21.40;64.20;;;20.57;47.02;101125.06;5018920;28;9689;-59
2021/01/19 04:28:20;;;;;;;;;0.00;0.00;21.20;64.00;;;20.56;46.80;101132.28;5025420;28;8789;-59
2021/01/19 04:30:47;;;;;;;;;1.00;1.00;21.40;64.20;;;20.57;46.94;101127.75;5023653;28;8812;-59
2021/01/19 04:33:15;;;;;;;;;0.00;0.00;21.40;64.10;;;20.57;46.90;101128.59;5030006;28;8804;-59
2021/01/19 04:35:42;;;;;;;;;0.00;0.00;21.40;64.20;;;20.60;46.79;101130.94;5026259;28;8851;-59
2021/01/19 04:38:09;;;;;;;;;1.00;0.00;21.50;64.10;;;20.59;46.67;101123.91;5025987;28;8863;-59
2021/01/19 04:40:37;;;;;;;;;0.00;0.00;21.40;63.90;;;20.58;46.73;101113.31;5029158;28;8962;-59
2021/01/19 04:43:05;;;;;;;;;0.00;0.00;21.40;64.00;;;20.60;46.88;101122.91;5021505;28;8802;-59
2021/01/19 04:45:33;;;;;;;;;0.00;0.00;21.40;64.00;;;20.58;46.53;101122.25;5029982;28;8893;-59
2021/01/19 04:48:02;;;;;;;;;0.00;0.00;21.40;63.70;;;20.59;46.57;101118.56;5036011;28;8825;-60
2021/01/19 04:50:29;;;;;;;;;1.40;0.00;21.40;63.90;;;20.58;46.37;101119.56;5010732;28;11172;-59
2021/01/19 04:52:59;;;;;;;;;1.00;0.00;21.40;63.90;;;20.59;46.66;101123.91;5019960;28;8919;-60
2021/01/19 04:55:27;;;;;;;;;0.40;0.00;21.50;63.80;;;20.59;46.14;101118.56;5025894;28;8802;-60
2021/01/19 04:58:03;;;;;;;;;0.20;0.20;21.40;63.50;;;20.61;46.58;101115.72;5012736;28;8852;-60
2021/01/19 05:00:37;;;;;;;;;0.00;0.00;21.50;63.60;;;20.61;46.82;101121.09;5031474;28;9695;-60
2021/01/19 05:03:21;;;;;;;;;1.00;0.00;21.50;64.10;;;20.62;46.93;101127.28;5015556;28;8876;-61
2021/01/19 05:05:48;;;;;;;;;0.20;0.00;21.50;64.00;;;20.62;46.78;101132.66;5008221;28;8851;-60
2021/01/19 05:08:17;;;;;;;;;0.00;0.00;21.50;64.00;;;20.62;46.86;101119.25;5031697;28;8914;-59
2021/01/19 05:11:01;;;;;;;;;0.00;0.00;21.50;64.10;;;20.63;46.79;101115.53;5022578;28;8854;-63
2021/01/19 05:13:54;;;;;;;;;0.00;0.00;21.40;64.20;;;20.63;46.41;101105.63;5016965;28;8820;-62
2021/01/19 05:16:30;;;;;;;;;1.80;0.60;21.60;64.50;;;20.65;47.12;101111.69;5024117;28;8847;-62
2021/01/19 05:18:59;;;;;;;;;0.20;0.00;21.40;64.40;;;20.65;46.99;101106.31;5023301;28;8802;-59
2021/01/19 05:21:26;;;;;;;;;0.00;0.00;21.30;64.40;;;20.64;46.71;101115.38;5014206;28;8810;-60
2021/01/19 05:23:55;;;;;;;;;0.00;0.00;21.60;64.70;;;20.66;46.35;101120.59;5010435;28;8799;-62
2021/01/19 05:26:21;;;;;;;;;0.00;0.00;21.50;64.50;;;20.67;47.14;101122.28;5016252;28;8858;-59
2021/01/19 05:28:54;;;;;;;;;1.00;0.00;21.60;64.70;;;20.67;46.61;101136.53;5028157;28;8841;-62
2021/01/19 05:31:29;;;;;;;;;0.00;0.00;21.50;64.50;;;20.69;47.12;101133.72;5020859;28;8842;-59
2021/01/19 05:33:58;;;;;;;;;0.20;0.00;21.40;64.40;;;20.68;47.02;101126.66;5016219;28;8800;-63
2021/01/19 05:36:45;;;;;;;;;0.00;0.00;21.50;64.50;;;20.68;47.01;101130.16;5030759;28;9561;-60
2021/01/19 05:39:19;;;;;;;;;0.00;0.00;21.40;64.50;;;20.68;47.11;101124.78;5028328;28;8815;-59
2021/01/19 05:41:50;;;;;;;;;0.80;0.80;21.70;64.70;;;20.70;47.17;101124.66;5025105;28;8794;-61
2021/01/19 05:44:27;;;;;;;;;0.00;0.00;21.50;64.60;;;20.70;47.09;101127.34;5024344;28;8891;-62
2021/01/19 05:47:05;;;;;;;;;0.00;0.00;21.50;64.60;;;20.70;46.85;101135.38;5023716;28;8826;-59
2021/01/19 05:49:34;;;;;;;;;2.00;1.00;21.50;64.30;;;20.70;46.74;101136.22;5032174;28;8929;-59
2021/01/19 05:52:10;;;;;;;;;0.00;0.00;21.40;64.20;;;20.69;46.54;101136.41;5026636;28;8789;-59
2021/01/19 05:54:45;;;;;;;;;1.00;1.00;21.50;64.20;;;20.69;46.32;101137.22;5021015;28;8857;-59
2021/01/19 05:57:20;;;;;;;;;0.00;0.00;21.50;64.10;;;20.68;46.12;101150.81;5029770;28;8804;-59
2021/01/19 05:59:55;;;;;;;;;0.20;0.00;21.30;64.00;;;20.70;46.23;101143.44;5019427;28;8923;-59
2021/01/19 06:02:35;;;;;;;;;0.00;0.00;21.20;63.40;;;20.69;46.11;101147.13;4997923;28;8776;-59
2021/01/19 06:05:16;;;;;;;;;0.60;0.00;21.40;63.80;;;20.69;45.74;101141.75;5024734;28;8830;-59
2021/01/19 06:07:48;;;;;;;;;1.00;0.00;21.40;63.50;;;20.70;45.90;101146.97;5025991;28;8951;-58
2021/01/19 06:10:18;;;;;;;;;0.00;0.00;21.40;63.70;;;20.68;45.54;101146.28;5032406;28;9539;-59
2021/01/19 06:12:45;;;;;;;;;0.00;0.00;21.40;63.30;;;20.69;45.84;101149.81;5018244;28;8897;-59
2021/01/19 06:15:12;;;;;;;;;0.00;0.00;21.40;63.60;;;20.70;45.43;101140.75;5041704;28;8808;-59
2021/01/19 06:17:39;;;;;;;;;0.00;0.00;21.40;63.00;;;20.68;45.78;101132.84;5018739;28;8827;-59
2021/01/19 06:20:08;;;;;;;;;0.00;0.00;21.40;63.60;;;20.70;45.88;101151.50;5025636;28;8842;-59
2021/01/19 06:22:36;;;;;;;;;1.00;0.00;21.40;63.50;;;20.70;45.33;101156.88;5014385;28;8836;-59
2021/01/19 06:25:11;;;;;;;;;0.00;0.00;21.40;63.50;;;20.68;44.24;101165.06;5021523;28;8801;-59
2021/01/19 06:27:39;;;;;;;;;0.00;0.00;21.40;62.40;;;20.69;42.55;101177.50;5032615;28;8876;-59
2021/01/19 06:30:10;;;;;;;;;0.00;0.00;21.40;60.30;;;20.71;42.41;101180.00;5020276;28;8804;-59
2021/01/19 06:32:49;;;;;;;;;0.00;0.00;21.30;60.00;;;20.70;42.21;101167.59;5026112;28;8890;-59
2021/01/19 06:35:23;;;;;;;;;0.00;0.00;21.30;60.60;;;20.68;41.40;101158.84;5023924;28;8923;-59
2021/01/19 06:37:53;;;;;;;;;0.00;0.00;21.30;59.20;;;20.67;40.85;101167.91;5028213;28;8814;-59
2021/01/19 06:40:23;;;;;;;;;0.00;0.00;21.30;59.50;;;20.66;41.38;101166.22;5015528;28;8832;-59
2021/01/19 06:43:04;;;;;;;;;0.00;0.00;21.50;59.90;;;20.62;41.56;101171.06;5000544;28;8915;-60
2021/01/19 06:45:33;;;;;;;;;0.00;0.00;21.30;59.00;;;20.59;42.10;101176.75;5029653;28;8782;-59
2021/01/19 06:48:02;;;;;;;;;0.20;0.00;21.30;60.60;;;20.57;39.95;101179.59;5021989;28;8805;-59
2021/01/19 06:50:36;;;;;;;;;0.00;0.00;21.40;58.40;;;20.56;40.62;101185.13;5028802;28;8834;-59
2021/01/19 06:53:22;;;;;;;;;0.00;0.00;21.30;57.60;;;20.51;41.33;101180.19;5014244;28;8835;-60
2021/01/19 06:55:59;;;;;;;;;0.00;0.00;21.30;58.90;;;20.55;42.45;101180.75;5029272;28;8809;-59
2021/01/19 06:58:41;;;;;;;;;2.40;0.20;21.50;59.80;;;20.51;41.98;101171.31;5022333;28;8798;-59
2021/01/19 07:01:14;;;;;;;;;1.60;0.40;21.30;59.10;;;20.50;41.12;101172.28;5045117;28;8809;-59
2021/01/19 07:03:43;;;;;;;;;0.40;0.00;21.50;59.10;;;20.46;41.23;101166.41;5039443;28;9562;-59
2021/01/19 07:06:12;;;;;;;;;0.00;0.00;21.30;57.80;;;20.47;41.62;101151.16;5037867;28;8783;-59
2021/01/19 07:09:25;;;;;;;;;0.00;0.00;21.50;59.40;;;20.45;41.22;101162.03;5042055;28;8792;-60
2021/01/19 07:12:09;;;;;;;;;0.00;0.00;21.30;59.00;;;20.44;40.72;101136.19;5032000;28;8790;-59
2021/01/19 07:14:42;;;;;;;;;0.00;0.00;21.30;58.60;;;20.44;41.12;101140.72;5042851;28;8792;-60
2021/01/19 07:17:18;;;;;;;;;1.00;0.00;21.30;58.30;;;20.43;41.70;101139.03;5026497;28;8780;-59
2021/01/19 07:19:48;;;;;;;;;0.00;0.00;21.20;58.50;;;20.42;40.74;101134.66;5037358;28;8856;-60
2021/01/19 07:22:51;;;;;;;;;0.00;0.00;21.30;58.10;;;20.41;40.38;101141.03;5051963;28;8811;-59
2021/01/19 07:25:19;;;;;;;;;0.00;0.00;21.30;58.40;;;20.39;40.30;101128.63;5005608;28;8788;-57
2021/01/19 07:27:46;;;;;;;;;0.00;0.00;21.30;57.20;;;20.40;41.28;101140.19;5008519;28;8806;-58
2021/01/19 07:30:15;;;;;;;;;0.40;0.40;21.30;57.90;;;20.39;41.73;101149.25;5045338;28;8828;-58
2021/01/19 07:32:47;;;;;;;;;0.60;0.00;21.30;58.60;;;20.37;41.74;101148.56;5026468;28;8916;-58
2021/01/19 07:35:15;;;;;;;;;0.00;0.00;21.40;58.70;;;20.36;42.09;101154.94;5006157;28;8855;-58
2021/01/19 07:37:42;;;;;;;;;0.00;0.00;21.30;59.10;;;20.37;42.41;101172.69;5025740;28;8908;-58
2021/01/19 07:40:21;;;;;;;;;0.00;0.00;21.40;59.20;;;20.35;43.00;101170.19;5020898;28;8882;-58
2021/01/19 07:42:49;;;;;;;;;0.60;0.20;21.40;59.50;;;20.32;43.07;101164.28;5020368;28;8782;-58
2021/01/19 07:45:27;;;;;;;;;1.00;0.00;21.50;59.10;;;20.33;42.90;101164.13;5026121;28;8848;-59
2021/01/19 07:48:08;;;;;;;;;1.00;0.00;21.30;58.90;;;20.32;43.40;101162.44;5030001;28;9542;-59
2021/01/19 07:50:45;;;;;;;;;0.00;0.00;21.30;59.80;;;20.29;43.75;101148.50;5023869;28;8814;-59
2021/01/19 07:53:12;;;;;;;;;0.00;0.00;21.20;59.50;;;20.29;43.91;101146.66;5029753;28;8795;-58
2021/01/19 07:55:48;;;;;;;;;0.00;0.00;21.20;59.90;;;20.27;43.97;101145.97;5024251;28;8912;-59
2021/01/19 07:58:20;;;;;;;;;0.00;0.00;21.30;60.00;;;20.27;43.97;101124.50;5028321;28;8837;-58
2021/01/19 08:01:05;;;;;;;;;0.40;0.00;21.50;60.60;;;20.26;44.07;101112.09;5030896;28;8842;-59
2021/01/19 08:03:33;;;;;;;;;0.00;0.00;21.30;60.10;;;20.25;44.06;101120.28;5029040;28;8778;-58
2021/01/19 08:06:10;;;;;;;;;0.00;0.00;21.20;60.50;;;20.23;44.14;101100.84;5016988;28;8907;-58
2021/01/19 08:08:40;;;;;;;;;1.00;0.80;21.20;60.50;;;20.22;44.27;101115.22;5026221;28;8793;-59
2021/01/19 08:11:19;;;;;;;;;0.00;0.00;21.30;60.70;;;20.22;44.42;101109.88;5031704;28;8829;-59
2021/01/19 08:14:00;;;;;;;;;0.40;0.00;21.30;60.80;;;20.22;44.50;101113.38;5027883;28;8802;-59
2021/01/19 08:16:32;;;;;;;;;1.00;0.00;21.20;61.00;;;20.19;44.29;101108.34;5017068;28;8783;-58
2021/01/19 08:19:14;;;;;;;;;0.40;0.00;21.30;61.20;;;20.19;44.84;101116.38;5050151;28;8850;-59
2021/01/19 08:21:49;;;;;;;;;0.00;0.00;21.30;60.80;;;20.19;44.74;101120.91;5013067;28;8911;-59
2021/01/19 08:24:20;;;;;;;;;0.60;0.00;21.20;60.90;;;20.18;44.99;101114.72;5012984;28;8883;-59
2021/01/19 08:26:47;;;;;;;;;0.00;0.00;21.20;61.40;;;20.16;44.73;101100.63;5016387;28;8813;-58
2021/01/19 08:29:18;;;;;;;;;0.00;0.00;21.10;60.90;;;20.15;45.18;101115.88;5019882;28;8818;-58
2021/01/19 08:31:56;;;;;;;;;0.00;0.00;21.30;61.50;;;20.14;45.04;101118.69;5038586;28;8804;-58
2021/01/19 08:34:26;;;;;;;;;0.00;0.00;21.20;61.40;;;20.12;45.08;101126.91;5031464;28;8880;-58
2021/01/19 08:36:55;;;;;;;;;0.00;0.00;21.20;61.50;;;20.13;45.30;101130.44;5024514;28;8795;-58
2021/01/19 08:39:22;;;;;;;;;0.00;0.00;21.10;61.50;;;20.13;45.39;101128.59;5018137;28;8809;-58
2021/01/19 08:41:52;;;;;;;;;0.00;0.00;21.20;62.00;;;20.11;45.46;101116.34;5045704;28;8772;-58
2021/01/19 08:44:20;;;;;;;;;0.00;0.00;21.20;61.90;;;20.11;45.58;101132.44;5025514;28;8793;-58
2021/01/19 08:46:49;;;;;;;;;0.00;0.00;21.00;61.90;;;20.09;45.91;101124.53;5031903;28;8792;-59
2021/01/19 08:49:18;;;;;;;;;0.00;0.00;21.10;62.20;;;20.10;45.86;101122.72;5032387;28;8809;-59
2021/01/19 08:51:50;;;;;;;;;0.00;0.00;21.20;62.30;;;20.09;45.78;101129.03;5029478;28;8814;-59
2021/01/19 08:54:17;;;;;;;;;0.40;0.40;21.10;62.60;;;20.06;45.98;101138.25;5028890;28;8780;-57
2021/01/19 08:56:46;;;;;;;;;0.00;0.00;21.20;62.50;;;20.06;46.08;101134.72;5043971;28;8837;-59
2021/01/19 08:59:14;;;;;;;;;2.00;1.60;21.00;62.20;;;20.06;46.12;101124.84;5029563;28;8917;-59
2021/01/19 09:01:52;;;;;;;;;0.00;0.00;21.10;62.60;;;20.06;46.27;101119.47;5034479;28;8798;-59
2021/01/19 09:04:29;;;;;;;;;0.00;0.00;21.10;62.30;;;20.05;45.77;101117.81;5025300;28;8815;-59
2021/01/19 09:07:12;;;;;;;;;0.00;0.00;21.20;62.40;;;20.02;46.11;101134.19;5029485;28;11161;-59
2021/01/19 09:09:46;;;;;;;;;0.00;0.00;21.30;62.60;;;20.04;46.03;101150.13;5024945;28;8799;-58
2021/01/19 09:12:20;;;;;;;;;0.00;0.00;21.10;62.30;;;20.01;46.00;101145.91;5031446;28;8873;-59
2021/01/19 09:14:52;;;;;;;;;0.00;0.00;20.90;62.20;;;20.01;45.98;101135.19;5028281;28;8775;-59
2021/01/19 09:17:28;;;;;;;;;0.00;0.00;21.10;62.40;;;20.00;45.86;101157.66;5035768;28;8810;-59
2021/01/19 09:20:07;;;;;;;;;0.00;0.00;21.20;62.30;;;20.00;45.61;101152.28;5025263;28;8817;-58
2021/01/19 09:22:33;;;;;;;;;0.00;0.00;21.20;62.50;;;19.98;45.72;101135.50;5025275;28;8780;-58
2021/01/19 09:25:00;;;;;;;;;0.00;0.00;21.00;62.00;;;19.97;45.71;101165.97;5024858;28;8794;-59
2021/01/19 09:27:27;;;;;;;;;0.80;0.40;21.00;62.30;;;19.97;45.72;101149.03;5034298;28;9541;-58
2021/01/19 09:30:11;;;;;;;;;0.00;0.00;20.90;61.60;;;19.94;45.47;101177.84;5027903;28;9569;-58
2021/01/19 09:32:40;;;;;;;;;0.00;0.00;20.90;62.00;;;19.97;45.20;101183.91;5036518;28;9418;-59
2021/01/19 09:35:09;;;;;;;;;0.00;0.00;21.00;61.80;;;19.93;45.17;101191.44;5036773;28;8786;-59
2021/01/19 09:37:36;;;;;;;;;0.00;0.00;20.90;61.60;;;19.92;45.16;101187.03;5024268;28;8781;-59
2021/01/19 09:40:05;;;;;;;;;0.00;0.00;20.90;61.40;;;19.92;45.34;101195.09;5016353;28;8889;-58
2021/01/19 09:42:32;;;;;;;;;0.00;0.00;20.90;61.70;;;19.91;45.42;101196.94;5022863;28;8844;-58
2021/01/19 09:45:00;;;;;;;;;0.00;0.00;20.90;61.50;;;19.90;45.58;101197.94;5025412;28;8794;-58
2021/01/19 09:47:30;;;;;;;;;0.00;0.00;20.80;61.70;;;19.88;45.11;101209.81;5001677;28;8782;-58
2021/01/19 09:49:57;;;;;;;;;0.00;0.00;20.90;61.70;;;19.87;45.20;101211.66;5008847;28;8820;-58
2021/01/19 09:52:31;;;;;;;;;0.00;0.00;20.80;61.60;;;19.87;45.17;101217.00;5013459;28;8799;-59
2021/01/19 09:55:11;;;;;;;;;0.00;0.00;20.90;61.30;;;19.85;45.21;101227.03;5021985;28;8889;-59
2021/01/19 09:57:38;;;;;;;;;0.00;0.00;20.80;61.60;;;19.84;45.53;101219.97;5026207;28;8811;-58
2021/01/19 10:00:09;;;;;;;;;0.00;0.00;21.00;61.70;;;19.83;45.41;101230.88;5028916;28;8861;-58
2021/01/19 10:02:38;;;;;;;;;0.00;0.00;20.80;61.80;;;19.83;45.37;101231.72;5030542;28;8794;-58
2021/01/19 10:05:07;;;;;;;;;0.00;0.00;20.90;61.70;;;19.82;45.30;101213.06;5030016;28;9515;-59
2021/01/19 10:07:35;;;;;;;;;0.00;0.00;20.90;61.50;;;19.82;45.57;101202.34;5034229;28;8823;-59
2021/01/19 10:10:12;;;;;;;;;0.00;0.00;20.90;61.70;;;19.82;45.39;101231.84;5041648;28;8984;-58
2021/01/19 10:12:41;;;;;;;;;0.00;0.00;20.80;62.00;;;19.80;45.54;101223.97;5030642;28;8792;-59
2021/01/19 10:15:11;;;;;;;;;0.00;0.00;20.90;62.00;;;19.79;45.30;101232.16;5028237;28;8814;-59
2021/01/19 10:17:38;;;;;;;;;0.00;0.00;20.80;61.70;;;19.79;45.62;101221.44;5034499;28;8818;-59
2021/01/19 10:20:16;;;;;;;;;0.00;0.00;20.80;61.80;;;19.78;45.55;101201.00;5030723;28;8826;-59
2021/01/19 10:22:46;;;;;;;;;0.00;0.00;20.90;62.10;;;19.77;46.07;101202.84;5045217;28;8761;-58
2021/01/19 10:25:28;;;;;;;;;0.00;0.00;20.80;62.10;;;19.78;45.72;101222.44;5027454;28;8784;-59
2021/01/19 10:28:01;;;;;;;;;0.00;0.00;20.80;62.10;;;19.76;45.46;101190.41;5032003;28;8783;-58
2021/01/19 10:30:46;;;;;;;;;0.00;0.00;20.90;62.40;;;19.75;45.73;101178.00;5033665;28;8881;-58
2021/01/19 10:33:27;;;;;;;;;0.00;0.00;20.80;62.30;;;19.74;45.80;101189.72;5020306;28;8789;-58
2021/01/19 10:35:53;;;;;;;;;0.00;0.00;20.90;62.40;;;19.74;45.71;101173.63;5033041;28;8755;-58
2021/01/19 10:38:27;;;;;;;;;0.00;0.00;20.60;62.80;;;19.72;45.60;101181.00;5035560;28;8794;-58
2021/01/19 10:40:54;;;;;;;;;0.00;0.00;20.70;62.30;;;19.71;45.66;101171.25;5023352;28;8812;-58